Time;durP1;ratioP1;P1;durP2;ratioP2;P2;SDS_P1;SDS_P2;PMS_P1;PMS_P2;Temp;Humidity;BMP_temperature;BMP_pressure;BME280_temperature;BME280_humidity;BME280_pressure;Samples;Min_cycle;Max_cycle;Signal;HPM_P1;HPM_P2
2023/01/22 00:00:36;;;;;;;9.88;5.45;;;;;;;1.03;100.00;98863.34;2549950;29;20100;-79
2023/01/22 00:02:11;;;;;;;8.02;4.38;;;;;;;0.99;100.00;98859.00;2549820;29;20055;-80
2023/01/22 00:03:27;;;;;;;10.43;5.55;;;;;;;1.14;100.00;98855.81;2551360;29;20071;-80
2023/01/22 00:04:42;;;;;;;9.95;5.13;;;;;;;1.11;100.00;98860.91;2551072;29;20073;-82
2023/01/22 00:05:58;;;;;;;11.38;5.63;;;;;;;1.03;100.00;98865.94;2549329;29;20051;-81
2023/01/22 00:07:17;;;;;;;10.98;5.55;;;;;;;0.99;100.00;98861.56;2549656;28;20486;-79
2023/01/22 00:08:33;;;;;;;11.63;5.57;;;;;;;0.72;100.00;98865.38;2549848;28;20066;-79
2023/01/22 00:09:48;;;;;;;10.77;5.90;;;;;;;0.77;100.00;98873.22;2550442;29;20058;-80
2023/01/22 00:11:04;;;;;;;9.57;5.40;;;;;;;0.90;100.00;98869.13;2551330;29;20059;-80
2023/01/22 00:12:20;;;;;;;9.02;5.30;;;;;;;0.70;100.00;98870.53;2550782;28;20055;-80
2023/01/22 00:13:35;;;;;;;9.68;5.10;;;;;;;0.53;100.00;98867.63;2551782;29;20055;-79
2023/01/22 00:14:51;;;;;;;9.95;5.32;;;;;;;0.85;100.00;98869.06;2549385;29;20051;-79
2023/01/22 00:16:07;;;;;;;10.55;5.10;;;;;;;1.06;100.00;98862.53;2551533;29;20055;-82
2023/01/22 00:17:23;;;;;;;11.20;5.53;;;;;;;0.48;100.00;98874.38;2550569;29;20063;-79
2023/01/22 00:18:39;;;;;;;9.77;5.28;;;;;;;0.58;100.00;98875.44;2552459;28;20065;-80
2023/01/22 00:19:54;;;;;;;9.68;5.63;;;;;;;0.54;100.00;98877.09;2551564;29;20058;-79
2023/01/22 00:21:11;;;;;;;11.60;5.25;;;;;;;0.55;100.00;98870.22;2550824;28;20416;-80
2023/01/22 00:22:27;;;;;;;10.60;5.50;;;;;;;0.69;100.00;98867.91;2549868;29;20055;-82
2023/01/22 00:23:42;;;;;;;6.53;3.53;;;;;;;0.58;100.00;98867.72;2551233;29;20054;-79
2023/01/22 00:24:58;;;;;;;11.38;5.50;;;;;;;0.50;100.00;98864.13;2549495;29;20481;-82
2023/01/22 00:26:15;;;;;;;10.65;4.78;;;;;;;0.24;100.00;98867.03;2549551;29;20055;-80
2023/01/22 00:27:31;;;;;;;11.68;5.70;;;;;;;0.48;100.00;98876.09;2550855;29;21004;-81
2023/01/22 00:28:47;;;;;;;13.15;5.68;;;;;;;0.47;100.00;98880.38;2549703;29;20082;-79
2023/01/22 00:30:03;;;;;;;11.70;5.30;;;;;;;0.50;100.00;98874.44;2551925;29;20678;-81
2023/01/22 00:31:19;;;;;;;12.15;5.80;;;;;;;0.56;100.00;98872.84;2550647;29;20143;-78
2023/01/22 00:32:34;;;;;;;12.75;5.93;;;;;;;0.72;100.00;98869.69;2550541;28;20063;-79
2023/01/22 00:33:50;;;;;;;10.10;5.15;;;;;;;0.79;100.00;98867.25;2550680;29;20087;-79
2023/01/22 00:35:06;;;;;;;11.95;5.70;;;;;;;0.68;100.00;98873.91;2551199;29;20254;-80
2023/01/22 00:36:21;;;;;;;11.55;5.72;;;;;;;0.53;100.00;98871.91;2550411;29;20086;-79
2023/01/22 00:37:37;;;;;;;12.18;6.20;;;;;;;0.69;100.00;98862.75;2550695;28;20078;-81
2023/01/22 00:38:53;;;;;;;13.57;5.82;;;;;;;0.77;100.00;98868.06;2549786;29;20070;-80
2023/01/22 00:40:09;;;;;;;13.50;6.60;;;;;;;0.80;100.00;98870.69;2550770;28;20051;-79
2023/01/22 00:41:24;;;;;;;12.85;6.40;;;;;;;0.83;100.00;98863.88;2549868;29;20110;-79
2023/01/22 00:42:40;;;;;;;11.93;5.47;;;;;;;0.84;100.00;98867.34;2551380;29;20138;-83
2023/01/22 00:43:56;;;;;;;11.50;5.95;;;;;;;0.58;100.00;98875.44;2552536;29;20498;-80
2023/01/22 00:45:13;;;;;;;11.10;5.68;;;;;;;0.61;100.00;98875.50;2552011;29;20149;-80
2023/01/22 00:46:28;;;;;;;12.40;6.15;;;;;;;0.38;100.00;98878.50;2552123;29;20138;-80
2023/01/22 00:47:44;;;;;;;10.50;5.80;;;;;;;0.59;100.00;98878.88;2549364;28;20079;-80
2023/01/22 00:49:02;;;;;;;11.40;6.25;;;;;;;0.73;100.00;98879.16;2552250;29;20405;-80
2023/01/22 00:50:17;;;;;;;11.80;5.95;;;;;;;0.53;100.00;98875.34;2550835;28;20442;-85
2023/01/22 00:51:35;;;;;;;16.30;6.18;;;;;;;0.75;100.00;98874.91;2550376;28;20048;-79
2023/01/22 00:52:51;;;;;;;13.27;6.68;;;;;;;0.72;100.00;98875.69;2550295;28;20055;-80
2023/01/22 00:54:08;;;;;;;11.02;5.78;;;;;;;0.91;100.00;98882.06;2550802;29;20538;-80
2023/01/22 00:55:23;;;;;;;13.68;5.93;;;;;;;0.76;100.00;98884.38;2550175;29;20055;-80
2023/01/22 00:56:38;;;;;;;11.35;5.75;;;;;;;0.66;100.00;98886.75;2550974;28;20055;-79
2023/01/22 00:57:54;;;;;;;11.30;5.90;;;;;;;0.62;100.00;98882.41;2550256;29;20103;-79
2023/01/22 00:59:10;;;;;;;12.88;6.43;;;;;;;0.50;100.00;98884.72;2550500;29;20350;-79
2023/01/22 01:00:26;;;;;;;11.95;6.10;;;;;;;0.70;100.00;98880.84;2550522;28;20052;-79
2023/01/22 01:01:41;;;;;;;11.23;5.57;;;;;;;0.53;100.00;98884.78;2552340;28;20095;-79
2023/01/22 01:04:31;;;;;;;12.45;5.88;;;;;;;0.50;100.00;98879.56;2551837;29;20520;-80
2023/01/22 01:05:47;;;;;;;12.95;6.15;;;;;;;0.45;100.00;98876.91;2550691;28;20070;-79
2023/01/22 01:07:02;;;;;;;11.13;5.93;;;;;;;0.44;100.00;98888.06;2550159;29;20044;-80
2023/01/22 01:08:18;;;;;;;14.85;6.45;;;;;;;0.48;100.00;98889.84;2550785;29;20079;-80
2023/01/22 01:09:34;;;;;;;11.07;6.05;;;;;;;0.56;100.00;98885.72;2550462;29;20459;-80
2023/01/22 01:10:57;;;;;;;11.23;5.07;;;;;;;0.21;100.00;98888.47;2553491;29;20055;-84
2023/01/22 01:12:13;;;;;;;11.00;5.70;;;;;;;0.38;100.00;98888.78;2551921;29;20414;-81
2023/01/22 01:13:31;;;;;;;11.63;5.65;;;;;;;0.70;100.00;98879.97;2552226;28;20086;-80
2023/01/22 01:14:47;;;;;;;11.88;6.07;;;;;;;0.74;100.00;98896.34;2552871;28;20142;-80
2023/01/22 01:16:05;;;;;;;11.23;5.57;;;;;;;0.64;100.00;98898.75;2553265;29;20075;-80
2023/01/22 01:17:21;;;;;;;12.43;6.05;;;;;;;0.60;100.00;98891.81;2553983;29;20055;-79
2023/01/22 01:18:37;;;;;;;10.90;5.90;;;;;;;0.63;100.00;98894.44;2552239;28;20151;-80
2023/01/22 01:19:52;;;;;;;12.82;6.18;;;;;;;0.48;100.00;98895.00;2554245;28;20055;-80
2023/01/22 01:21:08;;;;;;;12.95;6.00;;;;;;;0.69;100.00;98894.53;2552259;29;20477;-80
2023/01/22 01:22:24;;;;;;;13.02;6.07;;;;;;;0.35;100.00;98896.47;2550732;29;20083;-81
2023/01/22 01:23:40;;;;;;;13.05;5.93;;;;;;;0.82;100.00;98894.78;2551953;29;20082;-82
2023/01/22 01:24:55;;;;;;;11.52;5.93;;;;;;;1.06;100.00;98890.91;2552485;28;20444;-82
2023/01/22 01:26:13;;;;;;;12.50;5.75;;;;;;;1.14;100.00;98894.50;2553960;29;20403;-81
2023/01/22 01:27:30;;;;;;;9.70;5.40;;;;;;;1.19;100.00;98897.13;2552186;29;20793;-80
2023/01/22 01:28:46;;;;;;;12.15;6.03;;;;;;;1.11;100.00;98900.47;2554305;29;20233;-80
2023/01/22 01:30:02;;;;;;;11.05;5.85;;;;;;;1.16;100.00;98897.97;2553329;29;20613;-80
2023/01/22 01:31:19;;;;;;;12.68;6.40;;;;;;;1.36;100.00;98903.47;2552537;29;20062;-81
2023/01/22 01:32:35;;;;;;;16.17;6.90;;;;;;;1.19;100.00;98895.44;2551860;29;20459;-80
2023/01/22 01:33:52;;;;;;;12.05;6.60;;;;;;;1.22;100.00;98899.78;2553812;28;20094;-81
2023/01/22 01:35:07;;;;;;;13.30;6.55;;;;;;;1.37;100.00;98909.50;2552953;29;20138;-86
2023/01/22 01:36:24;;;;;;;11.93;5.60;;;;;;;1.15;100.00;98898.81;2553309;28;20102;-80
2023/01/22 01:37:40;;;;;;;14.55;7.03;;;;;;;1.15;100.00;98900.53;2551696;29;21179;-81
2023/01/22 01:38:56;;;;;;;12.18;6.32;;;;;;;1.36;100.00;98903.47;2551902;28;20055;-79
2023/01/22 01:40:11;;;;;;;13.73;6.55;;;;;;;1.34;100.00;98901.69;2553172;29;20055;-81
2023/01/22 01:41:27;;;;;;;12.40;7.00;;;;;;;1.28;100.00;98899.88;2553625;29;20113;-81
2023/01/22 01:42:42;;;;;;;12.77;6.32;;;;;;;1.36;100.00;98907.75;2553133;28;20055;-80
2023/01/22 01:44:05;;;;;;;14.25;6.40;;;;;;;1.49;100.00;98906.25;2553706;29;20540;-81
2023/01/22 01:45:31;;;;;;;13.73;6.00;;;;;;;1.45;100.00;98907.91;2553950;28;20410;-81
2023/01/22 01:46:54;;;;;;;14.10;6.45;;;;;;;1.34;100.00;98912.03;2553402;28;20083;-80
2023/01/22 01:48:22;;;;;;;13.50;6.20;;;;;;;1.43;100.00;98916.47;2553217;29;20055;-80
2023/01/22 01:49:46;;;;;;;13.02;6.03;;;;;;;1.24;100.00;98913.59;2553481;28;20795;-81
2023/01/22 01:51:05;;;;;;;14.40;7.30;;;;;;;1.20;100.00;98915.22;2553892;29;20047;-80
2023/01/22 01:52:21;;;;;;;16.67;7.78;;;;;;;1.21;100.00;98916.13;2552448;29;20131;-81
2023/01/22 01:53:38;;;;;;;14.55;7.05;;;;;;;1.26;100.00;98910.19;2553066;29;20063;-81
2023/01/22 01:54:56;;;;;;;13.23;5.82;;;;;;;1.21;100.00;98911.81;2551857;28;20059;-83
2023/01/22 01:56:16;;;;;;;13.40;6.70;;;;;;;1.20;100.00;98922.13;2551139;29;20082;-79
2023/01/22 01:57:33;;;;;;;14.55;7.55;;;;;;;1.40;100.00;98914.72;2551854;29;20130;-82
2023/01/22 01:58:54;;;;;;;12.98;6.13;;;;;;;1.32;100.00;98917.16;2551746;28;20051;-80
2023/01/22 02:00:12;;;;;;;13.57;6.72;;;;;;;1.30;100.00;98912.81;2552459;28;20067;-80
2023/01/22 02:01:29;;;;;;;11.68;6.20;;;;;;;1.51;100.00;98918.31;2553976;29;20142;-81
2023/01/22 02:02:45;;;;;;;11.52;6.40;;;;;;;1.51;100.00;98909.72;2552027;29;20051;-79
2023/01/22 02:04:01;;;;;;;13.50;6.90;;;;;;;1.46;100.00;98914.81;2551718;29;20609;-80
2023/01/22 02:05:19;;;;;;;10.95;6.00;;;;;;;1.47;100.00;98915.69;2550810;29;20059;-80
2023/01/22 02:06:35;;;;;;;10.50;5.68;;;;;;;1.65;100.00;98925.41;2552766;29;20091;-80
2023/01/22 02:07:50;;;;;;;10.73;5.93;;;;;;;1.75;100.00;98921.28;2552652;29;20087;-80
2023/01/22 02:09:06;;;;;;;9.93;6.32;;;;;;;1.67;100.00;98923.72;2552123;29;20052;-81
2023/01/22 02:10:22;;;;;;;11.30;6.30;;;;;;;1.50;100.00;98926.91;2551203;29;20052;-79
2023/01/22 02:11:38;;;;;;;12.05;5.80;;;;;;;1.65;100.00;98925.41;2550734;29;20055;-80
2023/01/22 02:12:57;;;;;;;12.02;6.40;;;;;;;1.65;100.00;98915.09;2551042;29;20056;-80
2023/01/22 02:14:17;;;;;;;12.10;5.90;;;;;;;1.58;100.00;98926.19;2552895;29;20527;-81
2023/01/22 02:15:33;;;;;;;11.63;6.65;;;;;;;1.55;100.00;98924.41;2551858;29;20051;-80
2023/01/22 02:17:18;;;;;;;12.40;6.25;;;;;;;1.33;100.00;98925.75;2552892;28;20405;-81
2023/01/22 02:18:34;;;;;;;10.63;5.38;;;;;;;1.53;100.00;98924.38;2553747;28;20122;-81
2023/01/22 02:19:49;;;;;;;10.90;5.75;;;;;;;1.67;100.00;98927.19;2551868;28;20047;-82
2023/01/22 02:21:43;;;;;;;9.38;5.65;;;;;;;1.63;100.00;98929.69;2552927;29;20059;-81
2023/01/22 02:22:58;;;;;;;;;;;;;;;1.58;100.00;98934.78;2552714;29;20051;-79
2023/01/22 02:24:16;;;;;;;7.72;4.55;;;;;;;1.61;100.00;98933.97;2550926;29;19981;-80
2023/01/22 02:25:35;;;;;;;10.13;5.45;;;;;;;1.61;100.00;98934.84;2551931;29;20095;-83
2023/01/22 02:26:50;;;;;;;8.27;5.00;;;;;;;1.63;100.00;98934.84;2551525;28;20106;-79
2023/01/22 02:28:06;;;;;;;11.00;4.95;;;;;;;1.72;100.00;98932.44;2551561;29;20055;-79
2023/01/22 02:29:21;;;;;;;11.52;5.72;;;;;;;1.64;100.00;98941.75;2553454;28;20074;-80
2023/01/22 02:30:37;;;;;;;10.75;5.15;;;;;;;1.64;100.00;98932.31;2552341;28;20076;-80
2023/01/22 02:31:53;;;;;;;11.07;5.68;;;;;;;1.69;100.00;98937.56;2551669;28;20051;-80
2023/01/22 02:33:09;;;;;;;8.70;5.22;;;;;;;1.63;100.00;98938.31;2552265;29;20364;-79
2023/01/22 02:34:25;;;;;;;8.48;5.25;;;;;;;1.60;100.00;98937.38;2550670;29;20150;-80
2023/01/22 02:35:40;;;;;;;10.20;5.82;;;;;;;1.54;100.00;98939.03;2552103;29;20506;-80
2023/01/22 02:36:56;;;;;;;9.40;5.30;;;;;;;1.64;100.00;98939.16;2553416;29;20474;-81
2023/01/22 02:38:13;;;;;;;10.52;5.72;;;;;;;1.35;100.00;98943.03;2561012;28;20482;-80
2023/01/22 02:39:29;;;;;;;11.63;6.00;;;;;;;1.32;100.00;98942.09;2558892;28;20055;-81
2023/01/22 02:40:47;;;;;;;12.10;5.60;;;;;;;1.12;100.00;98942.63;2550651;29;20055;-86
2023/01/22 02:42:04;;;;;;;9.63;5.57;;;;;;;1.18;100.00;98942.72;2553265;29;20105;-82
2023/01/22 02:43:20;;;;;;;9.68;5.22;;;;;;;1.29;100.00;98949.78;2553388;28;20106;-80
2023/01/22 02:44:35;;;;;;;13.32;6.35;;;;;;;1.40;100.00;98943.09;2551232;28;20054;-82
2023/01/22 02:45:54;;;;;;;12.07;6.50;;;;;;;1.48;100.00;98940.66;2551371;29;20056;-79
2023/01/22 02:47:10;;;;;;;12.23;5.78;;;;;;;1.53;100.00;98945.00;2550259;28;20586;-80
2023/01/22 02:48:25;;;;;;;13.63;7.13;;;;;;;1.27;100.00;98953.22;2550745;29;20058;-80
2023/01/22 02:49:41;;;;;;;12.02;6.10;;;;;;;1.47;100.00;98947.50;2553084;29;20054;-82
2023/01/22 02:50:56;;;;;;;11.50;5.85;;;;;;;1.45;100.00;98950.91;2551722;28;20086;-81
2023/01/22 02:52:12;;;;;;;10.48;5.63;;;;;;;1.43;100.00;98950.88;2551252;29;20051;-80
2023/01/22 02:53:28;;;;;;;12.38;5.82;;;;;;;1.20;100.00;98946.19;2551540;29;20055;-80
2023/01/22 02:54:43;;;;;;;12.60;6.22;;;;;;;1.15;100.00;98952.97;2552598;29;20051;-80
2023/01/22 02:55:59;;;;;;;10.43;5.88;;;;;;;1.27;100.00;98949.75;2550281;29;20090;-80
2023/01/22 02:57:15;;;;;;;12.40;6.45;;;;;;;1.36;100.00;98951.59;2553191;28;20051;-81
2023/01/22 02:58:31;;;;;;;10.70;5.43;;;;;;;1.18;100.00;98950.44;2551635;29;20055;-80
2023/01/22 02:59:46;;;;;;;12.90;5.82;;;;;;;1.32;100.00;98949.81;2550284;29;20074;-80
2023/01/22 03:01:19;;;;;;;12.98;6.03;;;;;;;1.08;100.00;98959.75;2551554;29;20054;-85
2023/01/22 03:02:34;;;;;;;12.73;6.28;;;;;;;1.22;100.00;98961.69;2552468;29;20058;-80
2023/01/22 03:03:55;;;;;;;10.52;5.63;;;;;;;0.98;100.00;98963.84;2550558;29;20419;-82
2023/01/22 03:05:11;;;;;;;12.05;6.00;;;;;;;1.07;100.00;98962.28;2553316;29;20417;-79
2023/01/22 03:06:28;;;;;;;13.43;6.00;;;;;;;1.17;100.00;98965.88;2549830;29;20063;-79
2023/01/22 03:07:44;;;;;;;11.98;6.25;;;;;;;1.16;100.00;98959.00;2553064;29;20078;-79
2023/01/22 03:09:00;;;;;;;12.02;6.38;;;;;;;1.30;100.00;98959.25;2552679;29;20053;-80
2023/01/22 03:10:19;;;;;;;12.48;6.63;;;;;;;1.41;100.00;98957.75;2552505;28;20055;-80
2023/01/22 03:11:36;;;;;;;12.32;6.22;;;;;;;1.40;100.00;98953.44;2551601;28;20384;-80
2023/01/22 03:22:20;;;;;;;17.52;7.20;;;;;;;1.34;100.00;98961.03;2553023;29;20047;-81
2023/01/22 03:23:36;;;;;;;13.80;6.78;;;;;;;1.29;100.00;98973.00;2552179;29;20055;-80
2023/01/22 03:24:52;;;;;;;15.13;7.50;;;;;;;1.35;100.00;98973.97;2551659;29;20122;-80
2023/01/22 03:26:08;;;;;;;13.38;6.32;;;;;;;1.44;100.00;98968.09;2549843;29;20070;-81
2023/01/22 03:27:25;;;;;;;13.27;6.70;;;;;;;1.51;100.00;98969.94;2553027;29;20767;-80
2023/01/22 03:28:41;;;;;;;13.68;6.70;;;;;;;1.49;100.00;98973.34;2551242;28;20525;-80
2023/01/22 03:29:57;;;;;;;14.63;6.97;;;;;;;1.39;100.00;98970.59;2551326;29;20059;-85
2023/01/22 03:31:14;;;;;;;16.13;6.88;;;;;;;1.42;100.00;98967.22;2552835;28;20070;-81
2023/01/22 03:32:30;;;;;;;14.07;6.75;;;;;;;1.38;100.00;98967.97;2551341;29;20047;-85
2023/01/22 03:33:46;;;;;;;13.23;6.60;;;;;;;1.38;100.00;98978.31;2549456;28;20047;-80
2023/01/22 03:35:01;;;;;;;12.25;6.63;;;;;;;1.56;100.00;98967.44;2550106;29;20578;-80
2023/01/22 03:36:17;;;;;;;13.63;7.03;;;;;;;1.47;100.00;98970.72;2550017;29;20463;-81
2023/01/22 03:37:32;;;;;;;12.65;6.68;;;;;;;1.47;100.00;98973.31;2551268;29;20078;-81
2023/01/22 03:38:48;;;;;;;11.80;6.18;;;;;;;1.42;100.00;98974.97;2551541;29;20050;-81
2023/01/22 03:40:04;;;;;;;13.75;6.90;;;;;;;1.55;100.00;98979.50;2550589;29;20055;-80
2023/01/22 03:41:20;;;;;;;13.93;6.20;;;;;;;1.37;100.00;98976.56;2551504;28;20150;-81
2023/01/22 03:42:35;;;;;;;13.15;6.82;;;;;;;1.14;100.00;98982.19;2551318;29;20051;-80
2023/01/22 03:43:52;;;;;;;14.48;6.80;;;;;;;1.38;100.00;98980.88;2550577;29;20114;-79
2023/01/22 03:45:08;;;;;;;12.98;6.63;;;;;;;1.50;100.00;98980.25;2552692;29;20078;-79
2023/01/22 03:46:24;;;;;;;11.77;6.38;;;;;;;1.45;100.00;98982.75;2552838;28;20056;-81
2023/01/22 03:47:40;;;;;;;15.38;7.03;;;;;;;1.44;100.00;98982.69;2550042;28;20383;-80
2023/01/22 03:48:55;;;;;;;14.55;6.95;;;;;;;1.52;100.00;98981.13;2552732;29;20169;-81
2023/01/22 03:50:11;;;;;;;13.10;6.75;;;;;;;1.42;100.00;98990.44;2551689;29;20124;-80
2023/01/22 03:51:27;;;;;;;14.52;6.55;;;;;;;1.40;100.00;98987.81;2551016;29;20471;-79
2023/01/22 03:52:42;;;;;;;13.88;7.47;;;;;;;1.16;100.00;98984.78;2552296;29;20055;-80
2023/01/22 03:53:58;;;;;;;16.60;7.85;;;;;;;1.21;100.00;98990.91;2551397;28;20097;-79
2023/01/22 03:55:14;;;;;;;16.13;7.75;;;;;;;1.44;100.00;98983.59;2560611;28;20058;-82
2023/01/22 03:56:30;;;;;;;16.40;7.88;;;;;;;1.52;100.00;98981.13;2556283;28;20113;-83
2023/01/22 03:57:45;;;;;;;14.57;7.35;;;;;;;1.57;100.00;98987.25;2551217;29;20047;-79
2023/01/22 03:59:01;;;;;;;13.27;7.32;;;;;;;1.58;100.00;98985.53;2550055;29;20151;-80
2023/01/22 04:00:17;;;;;;;15.55;7.40;;;;;;;1.62;100.00;98983.03;2550763;28;20059;-83
2023/01/22 04:01:33;;;;;;;15.90;7.65;;;;;;;1.62;100.00;98987.31;2550307;28;20082;-79
2023/01/22 04:02:49;;;;;;;16.42;7.82;;;;;;;1.62;100.00;98985.63;2552020;28;20067;-80
2023/01/22 04:04:04;;;;;;;17.10;8.15;;;;;;;1.68;100.00;98987.44;2550063;29;20082;-80
2023/01/22 04:05:20;;;;;;;15.88;7.80;;;;;;;1.64;100.00;98989.09;2550937;29;20418;-80
2023/01/22 04:06:36;;;;;;;12.77;7.20;;;;;;;1.62;100.00;98992.47;2550120;28;20066;-79
2023/01/22 04:07:52;;;;;;;15.35;8.02;;;;;;;1.68;100.00;98992.59;2552263;29;20058;-81
2023/01/22 04:09:07;;;;;;;15.32;8.35;;;;;;;1.63;100.00;98989.06;2550022;28;20140;-81
2023/01/22 04:10:23;;;;;;;14.98;7.70;;;;;;;1.62;100.00;98995.06;2551057;28;20565;-80
2023/01/22 04:11:38;;;;;;;18.70;8.73;;;;;;;1.56;100.00;99000.97;2551050;29;20048;-80
2023/01/22 04:12:54;;;;;;;18.70;9.15;;;;;;;1.54;100.00;99000.97;2552068;28;20047;-79
2023/01/22 04:14:09;;;;;;;17.88;8.00;;;;;;;1.56;100.00;98998.41;2552457;29;20097;-79
2023/01/22 04:15:25;;;;;;;19.77;8.68;;;;;;;1.66;100.00;98999.44;2551132;28;20106;-79
2023/01/22 04:16:41;;;;;;;21.23;10.38;;;;;;;1.64;100.00;99003.69;2551627;29;20051;-79
2023/01/22 04:17:57;;;;;;;19.02;9.00;;;;;;;1.57;100.00;99002.72;2550546;29;20088;-80
2023/01/22 04:19:13;;;;;;;18.65;8.60;;;;;;;1.64;100.00;98995.94;2549912;29;20055;-79
2023/01/22 04:20:29;;;;;;;16.02;8.32;;;;;;;1.64;100.00;99004.59;2549487;28;20170;-80
2023/01/22 04:21:45;;;;;;;17.52;8.68;;;;;;;1.61;100.00;98995.91;2550200;29;20047;-80
2023/01/22 04:23:01;;;;;;;18.25;8.20;;;;;;;1.63;100.00;98999.38;2550502;29;20075;-79
2023/01/22 04:24:16;;;;;;;17.90;9.23;;;;;;;1.67;100.00;98994.31;2549493;29;20227;-79
2023/01/22 04:25:33;;;;;;;14.43;7.05;;;;;;;1.52;100.00;98994.03;2550163;29;20056;-80
2023/01/22 04:26:51;;;;;;;16.05;7.35;;;;;;;1.36;100.00;99001.50;2551156;28;20134;-80
2023/01/22 04:28:09;;;;;;;13.32;6.90;;;;;;;1.35;100.00;99004.06;2550194;29;20491;-80
2023/01/22 04:29:25;;;;;;;14.52;7.07;;;;;;;1.34;100.00;98999.75;2550343;29;20047;-79
2023/01/22 04:30:42;;;;;;;13.57;6.80;;;;;;;1.41;100.00;98999.03;2551460;29;20051;-79
2023/01/22 04:31:57;;;;;;;11.90;6.70;;;;;;;1.48;100.00;98995.69;2551131;29;20055;-80
2023/01/22 04:33:13;;;;;;;13.38;7.03;;;;;;;1.37;100.00;98999.78;2549847;28;20055;-80
2023/01/22 04:34:28;;;;;;;14.15;7.15;;;;;;;1.33;100.00;98995.41;2550671;28;20550;-79
2023/01/22 04:35:47;;;;;;;12.40;7.05;;;;;;;1.41;100.00;98989.56;2550895;29;20664;-85
2023/01/22 04:37:03;;;;;;;13.38;6.93;;;;;;;1.39;100.00;98990.34;2551391;29;20085;-79
2023/01/22 04:38:18;;;;;;;14.50;7.13;;;;;;;1.31;100.00;98995.38;2550253;28;20052;-79
2023/01/22 04:39:34;;;;;;;14.85;6.88;;;;;;;1.19;100.00;98997.72;2551255;28;20079;-79
2023/01/22 04:40:50;;;;;;;12.60;6.55;;;;;;;1.37;100.00;98986.88;2550350;28;20051;-79
2023/01/22 04:42:05;;;;;;;13.88;6.80;;;;;;;1.37;100.00;98986.88;2550879;29;20052;-79
2023/01/22 04:43:21;;;;;;;14.75;7.03;;;;;;;1.24;100.00;98981.50;2550019;29;20047;-79
2023/01/22 04:44:36;;;;;;;15.48;7.60;;;;;;;1.32;100.00;98981.63;2550591;28;20110;-87
2023/01/22 04:45:52;;;;;;;15.48;7.55;;;;;;;1.34;100.00;98982.56;2552105;29;20058;-80
2023/01/22 04:47:08;;;;;;;17.67;8.38;;;;;;;1.35;100.00;98988.56;2553823;28;20071;-84
2023/01/22 04:48:26;;;;;;;17.92;8.07;;;;;;;1.41;100.00;98983.53;2554254;28;20516;-82
2023/01/22 04:49:45;;;;;;;13.68;7.07;;;;;;;1.41;100.00;98983.53;2554827;28;20131;-80
2023/01/22 04:51:05;;;;;;;13.15;6.72;;;;;;;1.15;100.00;98981.34;2553685;28;20549;-81
2023/01/22 04:52:20;;;;;;;13.57;6.63;;;;;;;1.53;100.00;98975.13;2554561;29;20051;-80
2023/01/22 04:53:38;;;;;;;12.88;6.80;;;;;;;1.62;100.00;98977.00;2562620;28;20574;-83
2023/01/22 04:54:59;;;;;;;14.35;6.93;;;;;;;1.57;100.00;98976.06;2559686;28;20079;-79
2023/01/22 04:56:17;;;;;;;14.45;6.97;;;;;;;1.53;100.00;98983.72;2552843;29;20047;-80
2023/01/22 04:57:36;;;;;;;16.38;7.65;;;;;;;1.51;100.00;98982.84;2553590;29;20102;-79
2023/01/22 04:58:51;;;;;;;16.02;7.75;;;;;;;1.43;100.00;98983.53;2554206;29;20101;-80
2023/01/22 05:00:09;;;;;;;17.55;7.70;;;;;;;1.35;100.00;98986.00;2553454;29;20102;-81
2023/01/22 05:01:27;;;;;;;19.02;7.20;;;;;;;1.38;100.00;98980.88;2554422;29;20047;-80
2023/01/22 05:02:43;;;;;;;13.43;6.97;;;;;;;1.36;100.00;98978.28;2553359;29;20052;-80
2023/01/22 05:04:09;;;;;;;17.92;8.10;;;;;;;1.17;100.00;98986.53;2554400;29;20075;-85
2023/01/22 05:05:25;;;;;;;14.95;7.50;;;;;;;1.35;100.00;98992.03;2554094;29;20048;-80
2023/01/22 05:06:41;;;;;;;17.02;7.78;;;;;;;1.35;100.00;98998.88;2553842;29;20078;-81
2023/01/22 05:07:58;;;;;;;15.65;7.28;;;;;;;1.36;100.00;98995.47;2553982;28;20055;-81
2023/01/22 05:09:14;;;;;;;17.30;7.57;;;;;;;1.38;100.00;98997.25;2553661;28;20048;-79
2023/01/22 05:10:29;;;;;;;16.25;7.50;;;;;;;1.43;100.00;99001.59;2554879;28;20047;-78
2023/01/22 05:11:48;;;;;;;14.80;6.88;;;;;;;1.44;100.00;98998.19;2554231;28;20521;-80
2023/01/22 05:13:07;;;;;;;16.08;8.05;;;;;;;1.36;100.00;99005.78;2553934;28;20522;-80
2023/01/22 05:14:22;;;;;;;13.80;7.05;;;;;;;1.37;100.00;99004.94;2553532;29;20495;-79
2023/01/22 05:15:38;;;;;;;15.30;7.13;;;;;;;1.36;100.00;99005.78;2555010;28;20070;-80
2023/01/22 05:16:54;;;;;;;15.32;7.55;;;;;;;1.45;100.00;99002.50;2554186;29;20405;-80
2023/01/22 05:18:09;;;;;;;15.10;7.63;;;;;;;1.46;100.00;98999.06;2555664;29;20052;-80
2023/01/22 05:19:25;;;;;;;16.52;7.45;;;;;;;1.43;100.00;99010.22;2553294;29;20059;-80
2023/01/22 05:20:41;;;;;;;12.90;6.43;;;;;;;1.49;100.00;99002.59;2552494;29;20419;-79
2023/01/22 05:21:56;;;;;;;14.35;7.57;;;;;;;1.50;100.00;99006.91;2552759;29;20048;-81
2023/01/22 05:23:15;;;;;;;15.07;7.03;;;;;;;1.47;100.00;99012.03;2552982;28;20099;-79
2023/01/22 05:24:31;;;;;;;13.98;6.97;;;;;;;1.52;100.00;99012.09;2553398;29;20062;-80
2023/01/22 05:25:49;;;;;;;14.85;7.38;;;;;;;1.41;100.00;99010.19;2553786;28;20090;-80
2023/01/22 05:27:04;;;;;;;13.25;6.68;;;;;;;1.44;100.00;99022.28;2553520;29;20055;-80
2023/01/22 05:28:20;;;;;;;15.38;7.30;;;;;;;1.51;100.00;99012.94;2553399;29;20467;-79
2023/01/22 05:29:36;;;;;;;14.60;7.72;;;;;;;1.35;100.00;99016.94;2553503;29;20180;-80
2023/01/22 05:30:54;;;;;;;13.27;6.88;;;;;;;1.36;100.00;99017.00;2554373;28;20039;-80
2023/01/22 05:32:10;;;;;;;14.90;7.47;;;;;;;1.25;100.00;99019.34;2553670;28;20060;-79
2023/01/22 05:33:30;;;;;;;15.50;7.57;;;;;;;1.24;100.00;99024.50;2554042;28;20047;-80
2023/01/22 05:34:45;;;;;;;15.25;6.90;;;;;;;1.21;100.00;99022.72;2552886;29;20044;-79
2023/01/22 05:36:02;;;;;;;15.18;7.65;;;;;;;1.26;100.00;99021.13;2553585;29;20077;-79
2023/01/22 05:37:17;;;;;;;16.40;7.40;;;;;;;1.18;100.00;99026.94;2553903;29;20658;-80
2023/01/22 05:38:34;;;;;;;16.75;7.78;;;;;;;1.21;100.00;99022.72;2554703;28;20063;-81
2023/01/22 05:39:50;;;;;;;14.38;7.05;;;;;;;1.22;100.00;99024.47;2553850;29;20053;-79
2023/01/22 05:41:06;;;;;;;19.52;7.65;;;;;;;1.15;100.00;99030.34;2567331;28;20050;-80
2023/01/22 05:42:24;;;;;;;14.32;6.93;;;;;;;1.23;100.00;99033.94;2562803;28;20597;-80
2023/01/22 05:43:39;;;;;;;14.70;7.90;;;;;;;1.24;100.00;99030.50;2553983;28;20078;-80
2023/01/22 05:44:58;;;;;;;14.23;7.20;;;;;;;1.29;100.00;99030.59;2552380;28;20050;-80
2023/01/22 05:46:14;;;;;;;16.02;7.40;;;;;;;1.29;100.00;99034.91;2554327;29;20047;-79
2023/01/22 05:47:32;;;;;;;16.38;8.05;;;;;;;1.30;100.00;99034.06;2552423;29;20059;-79
2023/01/22 05:48:48;;;;;;;14.38;6.72;;;;;;;1.37;100.00;99030.75;2553838;28;20086;-80
2023/01/22 05:50:06;;;;;;;14.05;6.88;;;;;;;1.38;100.00;99035.06;2552632;29;20052;-80
2023/01/22 05:51:23;;;;;;;15.60;7.10;;;;;;;1.33;100.00;99039.28;2554692;29;20051;-80
2023/01/22 05:52:38;;;;;;;16.60;7.63;;;;;;;1.37;100.00;99036.78;2553114;28;20055;-79
2023/01/22 05:53:54;;;;;;;15.35;7.30;;;;;;;1.38;100.00;99035.06;2553811;28;20079;-81
2023/01/22 05:55:10;;;;;;;14.10;6.75;;;;;;;1.44;100.00;99034.31;2554497;28;20050;-79
2023/01/22 05:56:28;;;;;;;14.38;6.72;;;;;;;1.38;100.00;99038.53;2552598;28;20134;-79
2023/01/22 05:57:46;;;;;;;13.90;6.78;;;;;;;1.44;100.00;99040.34;2552658;28;20071;-79
2023/01/22 05:59:01;;;;;;;14.60;6.85;;;;;;;1.43;100.00;99043.78;2551556;29;20138;-80
2023/01/22 06:00:20;;;;;;;14.25;7.25;;;;;;;1.44;100.00;99052.38;2553063;29;20062;-80
2023/01/22 06:01:36;;;;;;;14.98;7.43;;;;;;;1.38;100.00;99037.66;2551673;28;20802;-79
2023/01/22 06:02:56;;;;;;;15.40;7.65;;;;;;;1.27;100.00;99046.06;2552529;29;20055;-79
2023/01/22 06:04:12;;;;;;;16.00;8.18;;;;;;;1.18;100.00;99050.16;2552531;29;20601;-81
2023/01/22 06:05:27;;;;;;;19.08;9.40;;;;;;;1.24;100.00;99048.56;2553456;28;20063;-81
2023/01/22 06:06:43;;;;;;;20.00;9.55;;;;;;;1.30;100.00;99045.25;2551361;29;20499;-84
2023/01/22 06:07:59;;;;;;;20.80;10.20;;;;;;;1.41;100.00;99050.63;2552414;29;20051;-80
2023/01/22 06:09:17;;;;;;;20.77;9.70;;;;;;;1.31;100.00;99046.13;2551940;29;20055;-80